Time;durP1;ratioP1;P1;durP2;ratioP2;P2;SDS_P1;SDS_P2;PMS_P1;PMS_P2;Temp;Humidity;BMP_temperature;BMP_pressure;BME280_temperature;BME280_humidity;BME280_pressure;Samples;Min_cycle;Max_cycle;Signal;HPM_P1;HPM_P2
2022/12/03 00:00:46;;;;;;;34.70;15.05;;;;;;;2.00;83.38;102158.47;5062105;28;20020;-73
2022/12/03 00:03:11;;;;;;;31.58;15.65;;;;;;;1.97;83.19;102154.09;5062102;28;20388;-73
2022/12/03 00:05:36;;;;;;;28.90;14.27;;;;;;;2.00;83.61;102156.69;5054971;28;20081;-73
2022/12/03 00:08:02;;;;;;;32.42;15.52;;;;;;;2.00;84.26;102156.69;5062321;28;20020;-73
2022/12/03 00:10:27;;;;;;;29.98;14.50;;;;;;;1.95;83.90;102147.94;5070265;28;20548;-73
2022/12/03 00:12:52;;;;;;;31.52;16.10;;;;;;;1.96;84.02;102141.72;5060992;28;20027;-73
2022/12/03 00:15:18;;;;;;;30.45;14.23;;;;;;;1.95;83.92;102150.59;5059670;28;20077;-73
2022/12/03 00:17:43;;;;;;;34.40;16.05;;;;;;;1.95;84.16;102142.66;5057673;28;20073;-73
2022/12/03 00:20:15;;;;;;;31.75;13.85;;;;;;;1.95;83.54;102152.34;5060931;28;20025;-73
2022/12/03 00:22:41;;;;;;;29.58;15.43;;;;;;;1.96;84.28;102147.03;5061439;28;20055;-73
2022/12/03 00:25:07;;;;;;;29.83;15.40;;;;;;;1.98;85.01;102142.59;5062418;28;20024;-73
2022/12/03 00:27:32;;;;;;;31.30;16.23;;;;;;;1.97;84.68;102138.19;5058321;28;20384;-73
2022/12/03 00:29:57;;;;;;;33.25;18.25;;;;;;;1.94;84.05;102135.56;5058963;28;20024;-73
2022/12/03 00:32:22;;;;;;;30.77;15.18;;;;;;;1.96;85.10;102133.75;5070545;28;20028;-73
2022/12/03 00:34:48;;;;;;;28.90;14.80;;;;;;;1.97;84.57;102130.22;5075210;28;20020;-73
2022/12/03 00:37:13;;;;;;;31.05;16.13;;;;;;;1.99;84.41;102128.44;5067111;28;20020;-73
2022/12/03 00:39:38;;;;;;;30.95;16.55;;;;;;;1.96;84.44;102136.41;5058982;28;20032;-73
2022/12/03 00:42:04;;;;;;;29.75;15.23;;;;;;;1.95;84.82;102131.13;5059721;28;20024;-73
2022/12/03 00:44:29;;;;;;;28.58;16.08;;;;;;;1.96;84.57;102131.13;5056208;28;20020;-73
2022/12/03 00:46:54;;;;;;;32.95;16.60;;;;;;;1.94;84.45;102121.47;5060345;28;20427;-73
2022/12/03 00:49:19;;;;;;;31.13;16.30;;;;;;;1.95;84.60;102128.50;5063105;28;20158;-73
2022/12/03 00:51:45;;;;;;;30.08;14.85;;;;;;;1.96;84.64;102131.13;5060641;28;20032;-73
2022/12/03 00:54:10;;;;;;;31.67;15.25;;;;;;;1.96;84.25;102128.47;5062207;28;20207;-73
2022/12/03 00:56:35;;;;;;;34.35;17.75;;;;;;;1.99;84.01;102128.44;5057855;28;20427;-73
2022/12/03 00:59:01;;;;;;;30.88;16.83;;;;;;;1.98;84.16;102136.41;5063656;28;20036;-73
2022/12/03 01:01:26;;;;;;;30.75;14.20;;;;;;;1.99;84.68;102133.75;5060968;28;20024;-73
2022/12/03 01:03:51;;;;;;;33.33;16.38;;;;;;;2.00;84.46;102138.13;5055611;28;20400;-73
2022/12/03 01:06:16;;;;;;;33.45;16.27;;;;;;;2.01;84.42;102133.72;5067374;28;20073;-73
2022/12/03 01:08:42;;;;;;;32.35;16.02;;;;;;;1.98;84.23;102134.63;5067570;28;20043;-73
2022/12/03 01:11:36;;;;;;;32.25;15.73;;;;;;;1.99;84.67;102139.03;5059815;28;20058;-73
2022/12/03 01:13:55;;;;;;;34.35;16.58;;;;;;;1.97;84.45;102132.88;5060149;28;20094;-73
2022/12/03 01:16:20;;;;;;;32.85;16.05;;;;;;;1.98;84.77;102125.81;5059917;28;20028;-73
2022/12/03 01:18:45;;;;;;;31.25;17.52;;;;;;;1.97;84.67;102129.34;5060346;28;20472;-73
2022/12/03 01:21:11;;;;;;;33.72;17.02;;;;;;;1.97;84.43;102121.41;5059817;28;20031;-73
2022/12/03 01:23:36;;;;;;;33.05;16.50;;;;;;;1.96;84.13;102124.94;5057785;28;20111;-73
2022/12/03 01:26:01;;;;;;;33.70;16.30;;;;;;;1.99;84.82;102128.44;5061227;28;20475;-73
2022/12/03 01:28:28;;;;;;;33.92;16.90;;;;;;;1.99;84.53;102120.47;5059432;28;20028;-73
2022/12/03 01:33:37;;;;;;;32.33;17.25;;;;;;;2.02;85.05;102123.09;5057596;28;20036;-73
2022/12/03 01:36:03;;;;;;;33.50;16.15;;;;;;;2.01;84.62;102121.31;5061262;28;20033;-73
2022/12/03 01:38:28;;;;;;;32.97;16.88;;;;;;;2.05;85.35;102122.13;5055940;28;20028;-73
2022/12/03 01:40:53;;;;;;;34.38;17.23;;;;;;;2.05;84.84;102120.38;5058677;28;20099;-73
2022/12/03 01:43:19;;;;;;;34.15;16.92;;;;;;;2.05;84.81;102119.47;5059232;28;20028;-73
2022/12/03 01:45:44;;;;;;;32.60;18.63;;;;;;;2.06;84.63;102130.06;5061761;28;20024;-72
2022/12/03 01:48:15;;;;;;;34.22;20.23;;;;;;;2.02;84.16;102125.72;5057405;28;20037;-73
2022/12/03 01:50:41;;;;;;;33.22;18.00;;;;;;;2.03;84.46;102122.16;5059252;28;20461;-73
2022/12/03 01:53:10;;;;;;;34.38;17.20;;;;;;;2.01;84.80;102110.72;5058491;28;20123;-73
2022/12/03 01:55:36;;;;;;;32.22;16.92;;;;;;;2.03;84.91;102116.84;5060226;28;20033;-73
2022/12/03 01:58:02;;;;;;;35.22;18.63;;;;;;;2.05;85.21;102108.88;5056898;28;20494;-73
2022/12/03 02:00:28;;;;;;;34.90;18.92;;;;;;;2.05;84.92;102112.41;5056860;28;20020;-73
2022/12/03 02:03:03;;;;;;;32.42;17.20;;;;;;;2.03;84.77;102116.84;5059624;28;20031;-73
2022/12/03 02:05:32;;;;;;;34.88;17.17;;;;;;;2.04;84.72;102109.78;5060599;28;20104;-73
2022/12/03 02:07:59;;;;;;;37.58;20.00;;;;;;;2.05;84.65;102117.72;5058849;28;20041;-73
2022/12/03 02:10:29;;;;;;;36.22;19.25;;;;;;;2.06;85.41;102111.50;5060848;28;20035;-73
2022/12/03 02:13:02;;;;;;;33.92;17.77;;;;;;;2.10;84.29;102109.69;5054739;28;20094;-73
2022/12/03 02:15:27;;;;;;;35.55;17.63;;;;;;;2.12;84.26;102109.66;5060462;28;20042;-73
2022/12/03 02:17:53;;;;;;;35.67;18.45;;;;;;;2.13;84.46;102109.63;5059474;28;20028;-73
2022/12/03 02:20:19;;;;;;;39.25;20.23;;;;;;;2.12;84.75;102107.00;5060298;28;20040;-73
2022/12/03 02:23:09;;;;;;;35.10;19.05;;;;;;;2.13;84.70;102106.97;5057821;28;20033;-73
2022/12/03 02:25:35;;;;;;;35.63;20.17;;;;;;;2.11;84.66;102111.44;5056936;28;20032;-73
2022/12/03 02:28:02;;;;;;;33.28;17.52;;;;;;;2.12;84.75;102109.66;5058102;28;20028;-73
2022/12/03 02:30:29;;;;;;;36.35;18.63;;;;;;;2.11;84.54;102098.19;5059997;28;20518;-73
2022/12/03 02:32:55;;;;;;;39.65;20.33;;;;;;;2.09;85.07;102106.16;5060326;28;20450;-73
2022/12/03 02:35:24;;;;;;;38.17;19.63;;;;;;;2.10;85.05;102105.25;5065144;28;20395;-73
2022/12/03 02:37:53;;;;;;;33.40;16.80;;;;;;;2.11;84.66;102098.19;5060249;28;20037;-73
2022/12/03 02:40:21;;;;;;;35.72;19.48;;;;;;;2.11;84.28;102108.78;5062095;28;20487;-73
2022/12/03 02:42:50;;;;;;;35.72;17.98;;;;;;;2.07;84.93;102102.66;5062573;28;20029;-73
2022/12/03 02:45:26;;;;;;;37.75;18.25;;;;;;;2.06;85.01;102097.38;5060692;28;20035;-73
2022/12/03 02:47:57;;;;;;;35.22;18.40;;;;;;;2.05;84.84;102095.63;5055299;28;20116;-73
2022/12/03 02:50:27;;;;;;;31.58;17.08;;;;;;;2.04;85.12;102093.88;5057460;28;20049;-72
2022/12/03 02:52:55;;;;;;;35.67;17.38;;;;;;;2.01;84.87;102097.47;5060602;28;20088;-73
2022/12/03 02:55:21;;;;;;;35.35;18.50;;;;;;;2.03;85.59;102097.44;5060686;28;20031;-73
2022/12/03 02:57:48;;;;;;;36.55;17.83;;;;;;;2.02;85.57;102093.91;5057713;28;20032;-73
2022/12/03 03:00:15;;;;;;;34.33;18.95;;;;;;;2.05;85.66;102096.50;5055884;28;20035;-73
2022/12/03 03:02:41;;;;;;;34.90;18.77;;;;;;;2.05;85.36;102091.19;5055244;28;20115;-73
2022/12/03 03:05:08;;;;;;;36.60;18.55;;;;;;;2.06;85.07;102094.72;5057184;28;20032;-73
2022/12/03 03:07:34;;;;;;;32.20;17.90;;;;;;;2.06;85.52;102097.38;5058970;28;20029;-73
2022/12/03 03:10:01;;;;;;;39.47;20.80;;;;;;;2.03;85.09;102094.78;5054464;28;20048;-73
2022/12/03 03:12:26;;;;;;;33.17;18.95;;;;;;;2.02;85.20;102087.72;5058096;28;20174;-73
2022/12/03 03:14:52;;;;;;;37.55;19.73;;;;;;;2.00;85.38;102078.94;5055342;28;20092;-73
2022/12/03 03:17:17;;;;;;;32.72;17.42;;;;;;;1.98;85.22;102084.25;5059387;28;20036;-73
2022/12/03 03:19:42;;;;;;;36.03;18.05;;;;;;;1.96;85.60;102075.44;5058223;28;20435;-73
2022/12/03 03:22:11;;;;;;;36.47;18.15;;;;;;;1.95;86.15;102075.47;5057701;28;20415;-73
2022/12/03 03:24:36;;;;;;;35.28;19.98;;;;;;;1.96;86.17;102074.56;5056115;28;20376;-73
2022/12/03 03:27:03;;;;;;;37.47;20.05;;;;;;;1.98;86.43;102075.44;5065179;28;20039;-73
2022/12/03 03:29:30;;;;;;;37.80;19.27;;;;;;;1.97;85.81;102079.84;5055540;28;20396;-73
2022/12/03 03:31:56;;;;;;;35.05;18.92;;;;;;;1.96;86.51;102075.44;5058566;28;20404;-73
2022/12/03 03:34:21;;;;;;;36.40;19.30;;;;;;;1.98;86.34;102073.66;5059641;28;20040;-73
2022/12/03 03:36:47;;;;;;;33.80;19.50;;;;;;;2.01;86.03;102076.25;5054709;28;20126;-73
2022/12/03 03:39:12;;;;;;;35.80;19.15;;;;;;;2.03;85.99;102079.72;5056787;28;20029;-73
2022/12/03 03:41:38;;;;;;;34.80;19.50;;;;;;;2.03;85.79;102073.56;5056029;28;20027;-73
2022/12/03 03:44:05;;;;;;;35.78;18.38;;;;;;;2.03;85.87;102076.22;5057535;28;20026;-73
2022/12/03 03:46:32;;;;;;;34.63;18.60;;;;;;;2.02;85.88;102067.41;5062133;28;20427;-73
2022/12/03 03:48:57;;;;;;;34.30;18.30;;;;;;;2.00;85.83;102073.63;5056865;28;20024;-73
2022/12/03 03:51:22;;;;;;;35.67;18.92;;;;;;;2.00;86.12;102063.00;5053920;28;20141;-73
2022/12/03 03:53:49;;;;;;;34.63;18.88;;;;;;;2.04;86.23;102064.72;5060959;28;20068;-73
2022/12/03 03:56:19;;;;;;;34.33;19.98;;;;;;;2.04;86.23;102068.22;5056988;28;20123;-73
2022/12/03 03:58:44;;;;;;;36.40;19.40;;;;;;;2.06;86.41;102069.06;5055263;28;20495;-73
2022/12/03 04:01:12;;;;;;;37.80;19.77;;;;;;;2.05;86.26;102070.00;5056738;28;20056;-73
2022/12/03 04:03:37;;;;;;;36.03;18.00;;;;;;;2.08;86.29;102061.09;5061181;28;20025;-73
2022/12/03 04:06:03;;;;;;;36.88;19.52;;;;;;;2.08;85.68;102064.63;5054664;28;20035;-73
2022/12/03 04:08:29;;;;;;;38.50;20.58;;;;;;;2.09;85.64;102065.50;5062075;28;20090;-73
2022/12/03 04:13:38;;;;;;;37.67;19.50;;;;;;;2.07;86.29;102065.53;5054994;28;20098;-73
2022/12/03 04:16:03;;;;;;;32.35;17.63;;;;;;;2.08;85.66;102061.97;5059088;28;20467;-73
2022/12/03 04:18:44;;;;;;;34.53;19.85;;;;;;;2.07;86.58;102054.03;5058800;28;20025;-73
2022/12/03 04:24:01;;;;;;;38.08;22.00;;;;;;;2.08;85.52;102064.63;5054267;28;20210;-73
2022/12/03 04:29:11;;;;;;;39.55;19.15;;;;;;;2.07;85.70;102059.34;5052787;28;20083;-73
2022/12/03 04:37:05;;;;;;;37.58;19.27;;;;;;;2.08;86.08;102055.81;5061436;28;20063;-73
2022/12/03 04:39:31;;;;;;;37.35;20.25;;;;;;;2.06;86.18;102057.59;5071408;28;20024;-73
2022/12/03 04:41:56;;;;;;;36.05;19.05;;;;;;;2.05;86.11;102062.03;5068301;28;20082;-73
2022/12/03 04:44:37;;;;;;;38.83;22.83;;;;;;;2.07;86.28;102051.41;5067176;28;21781;-73
2022/12/03 04:47:04;;;;;;;39.05;20.90;;;;;;;2.07;85.97;102049.59;5070593;28;20082;-73
2022/12/03 04:49:30;;;;;;;38.17;19.17;;;;;;;2.08;85.87;102048.72;5067684;28;20028;-73
2022/12/03 04:51:55;;;;;;;38.38;20.85;;;;;;;2.08;85.67;102051.38;5063333;28;20033;-73
2022/12/03 04:54:21;;;;;;;39.33;21.33;;;;;;;2.07;86.13;102054.91;5062250;28;20111;-73
2022/12/03 04:56:46;;;;;;;38.00;21.92;;;;;;;2.08;86.43;102051.38;5059339;28;20043;-73
2022/12/03 04:59:13;;;;;;;37.25;20.98;;;;;;;2.12;86.29;102046.00;5058518;28;20036;-73
2022/12/03 05:01:38;;;;;;;39.75;21.75;;;;;;;2.14;86.78;102042.44;5065390;28;20983;-73
2022/12/03 05:04:03;;;;;;;32.42;17.98;;;;;;;2.16;85.76;102043.25;5057862;28;20044;-73
2022/12/03 05:06:28;;;;;;;38.10;20.17;;;;;;;2.16;85.76;102043.25;5063441;28;20121;-73
2022/12/03 05:08:54;;;;;;;37.80;18.88;;;;;;;2.16;85.88;102039.75;5062015;28;20028;-73
2022/12/03 05:11:19;;;;;;;34.22;19.42;;;;;;;2.12;85.82;102038.91;5059480;28;20024;-73
2022/12/03 05:13:44;;;;;;;36.33;18.75;;;;;;;2.12;86.23;102036.25;5061101;28;20029;-73
2022/12/03 05:16:09;;;;;;;36.03;18.55;;;;;;;2.11;86.11;102042.50;5056873;28;20025;-73
2022/12/03 05:18:35;;;;;;;36.47;19.27;;;;;;;2.09;86.17;102037.22;5061752;28;20029;-73
2022/12/03 05:21:00;;;;;;;36.90;20.85;;;;;;;2.09;85.88;102038.97;5056254;28;20253;-73
2022/12/03 05:23:26;;;;;;;38.30;20.42;;;;;;;2.05;86.22;102035.53;5060069;28;20035;-73
2022/12/03 05:25:51;;;;;;;36.88;20.92;;;;;;;2.05;85.78;102039.94;5062251;28;20036;-73
2022/12/03 05:28:16;;;;;;;34.85;20.00;;;;;;;2.04;86.38;102028.44;5057757;28;20032;-73
2022/12/03 05:30:42;;;;;;;36.05;20.65;;;;;;;2.07;86.81;102036.34;5056216;28;21264;-73
2022/12/03 05:33:07;;;;;;;35.10;20.30;;;;;;;2.04;86.54;102028.44;5055804;28;20056;-73
2022/12/03 05:35:32;;;;;;;35.38;19.30;;;;;;;2.01;86.10;102041.78;5061567;28;20056;-73
2022/12/03 05:37:57;;;;;;;37.47;19.83;;;;;;;2.01;86.41;102031.16;5062524;28;20036;-73
2022/12/03 05:40:23;;;;;;;35.50;20.17;;;;;;;2.01;87.16;102025.00;5063646;28;20125;-73
2022/12/03 05:42:55;;;;;;;36.95;20.55;;;;;;;2.02;86.55;102024.97;5058327;28;20033;-73
2022/12/03 05:45:23;;;;;;;37.00;18.13;;;;;;;2.05;86.60;102024.91;5059453;28;20032;-73
2022/12/03 05:47:49;;;;;;;35.60;20.15;;;;;;;2.06;87.23;102021.34;5058837;28;20044;-73
2022/12/03 05:50:15;;;;;;;35.67;21.35;;;;;;;2.09;86.75;102025.72;5057449;28;20399;-73
2022/12/03 05:52:40;;;;;;;42.40;19.85;;;;;;;2.10;86.62;102020.38;5058932;28;20065;-73
2022/12/03 05:55:06;;;;;;;38.83;22.02;;;;;;;2.10;86.24;102024.81;5063876;28;20115;-73
2022/12/03 05:57:32;;;;;;;38.60;20.60;;;;;;;2.08;86.82;102019.53;5058013;28;20119;-73
2022/12/03 05:59:57;;;;;;;37.88;20.08;;;;;;;2.07;86.97;102012.47;5063369;28;20115;-73
2022/12/03 06:02:22;;;;;;;37.40;21.08;;;;;;;2.07;87.13;102015.13;5058557;28;20032;-73
2022/12/03 06:04:48;;;;;;;42.60;20.35;;;;;;;2.07;87.00;102012.47;5062985;28;20033;-73
2022/12/03 06:07:13;;;;;;;41.15;22.77;;;;;;;2.10;87.14;102014.22;5061418;28;20032;-73
2022/12/03 06:09:38;;;;;;;39.85;21.83;;;;;;;2.09;86.84;102020.41;5061407;28;20296;-73
2022/12/03 06:12:05;;;;;;;37.47;20.90;;;;;;;2.07;86.57;102023.09;5071964;28;20036;-73
2022/12/03 06:14:31;;;;;;;35.95;19.40;;;;;;;2.04;86.87;102017.84;5072346;28;20032;-73
2022/12/03 06:16:56;;;;;;;34.78;20.23;;;;;;;2.01;87.27;102017.91;5072777;28;20042;-73
2022/12/03 06:19:21;;;;;;;38.33;20.73;;;;;;;2.00;87.29;102010.84;5072959;28;20030;-73
2022/12/03 06:21:47;;;;;;;34.20;19.40;;;;;;;1.97;87.42;102007.41;5072540;28;20032;-73
2022/12/03 06:24:12;;;;;;;39.63;21.60;;;;;;;1.97;87.38;102004.75;5071988;28;20376;-73
2022/12/03 06:26:37;;;;;;;40.25;20.73;;;;;;;2.01;87.61;102012.59;5070141;28;20434;-73
2022/12/03 06:29:02;;;;;;;39.10;20.52;;;;;;;2.03;87.26;102008.13;5059133;28;20025;-73
2022/12/03 06:31:28;;;;;;;38.42;18.75;;;;;;;2.00;87.83;102016.16;5062183;28;20090;-73
2022/12/03 06:33:53;;;;;;;39.97;21.45;;;;;;;1.99;87.55;102011.78;5067593;28;20427;-73
2022/12/03 06:36:18;;;;;;;47.38;24.27;;;;;;;1.99;86.99;102022.38;5063879;28;20039;-73
2022/12/03 06:38:43;;;;;;;40.45;21.35;;;;;;;2.00;87.84;102018.81;5065784;28;20032;-73
2022/12/03 06:41:09;;;;;;;40.17;21.35;;;;;;;1.97;87.69;102013.56;5072291;28;20016;-73
2022/12/03 06:43:34;;;;;;;34.55;20.67;;;;;;;1.99;88.11;102013.53;5073282;28;20024;-73
2022/12/03 06:45:59;;;;;;;38.92;20.80;;;;;;;2.01;87.71;102014.41;5072043;28;20024;-73
2022/12/03 06:48:24;;;;;;;41.00;22.35;;;;;;;2.02;87.73;102014.38;5068975;28;20044;-73
2022/12/03 06:50:50;;;;;;;41.42;21.00;;;;;;;2.01;87.11;102012.59;5071582;28;20605;-73
2022/12/03 06:53:15;;;;;;;39.15;20.60;;;;;;;1.96;87.92;102009.16;5058196;28;20032;-73
2022/12/03 06:55:40;;;;;;;42.30;21.80;;;;;;;1.92;88.29;102000.41;5058258;28;20033;-73
2022/12/03 06:58:05;;;;;;;39.83;22.10;;;;;;;1.90;87.73;102004.88;5058164;28;20155;-73
2022/12/03 07:00:31;;;;;;;46.58;19.90;;;;;;;1.89;87.58;102003.09;5056902;28;20040;-73
2022/12/03 07:02:56;;;;;;;41.63;20.30;;;;;;;1.91;87.85;102011.91;5060580;28;20407;-73
2022/12/03 07:05:21;;;;;;;39.15;20.85;;;;;;;1.91;87.97;102008.38;5059046;28;20094;-73
2022/12/03 07:07:51;;;;;;;38.28;19.00;;;;;;;1.89;87.55;102007.53;5058284;28;20035;-73
2022/12/03 07:10:18;;;;;;;37.05;20.48;;;;;;;1.86;87.63;102004.91;5056891;28;20082;-73
2022/12/03 07:12:44;;;;;;;39.13;20.27;;;;;;;1.88;87.91;102013.75;5062369;28;20121;-73
2022/12/03 07:15:09;;;;;;;42.17;23.33;;;;;;;1.88;87.87;102011.09;5064202;28;20459;-74
2022/12/03 07:17:34;;;;;;;35.33;19.02;;;;;;;1.86;87.15;102016.41;5053694;28;20025;-73
2022/12/03 07:20:00;;;;;;;38.00;21.33;;;;;;;1.87;88.19;102009.34;5056851;28;20028;-73
2022/12/03 07:22:25;;;;;;;34.78;20.45;;;;;;;1.89;87.73;102008.41;5056735;28;20120;-73
2022/12/03 07:24:50;;;;;;;42.08;24.75;;;;;;;1.88;87.55;102013.75;5060134;28;20392;-73
2022/12/03 07:27:15;;;;;;;40.50;21.75;;;;;;;1.89;87.64;102007.53;5060294;28;20055;-73
2022/12/03 07:29:41;;;;;;;35.95;20.83;;;;;;;1.90;87.10;102009.28;5058545;28;20032;-73
2022/12/03 07:32:06;;;;;;;34.78;18.85;;;;;;;1.92;87.89;102002.19;5056835;28;20499;-73
2022/12/03 07:34:31;;;;;;;36.58;19.33;;;;;;;1.94;87.07;102004.81;5056718;28;20101;-73
2022/12/03 07:36:57;;;;;;;38.42;19.08;;;;;;;1.92;87.43;101994.22;5056490;28;20104;-73
2022/12/03 07:39:22;;;;;;;34.83;20.10;;;;;;;1.92;87.31;102002.19;5058040;28;20047;-73
2022/12/03 07:41:47;;;;;;;37.75;20.92;;;;;;;1.94;87.35;102000.38;5057000;28;20033;-73
2022/12/03 07:44:13;;;;;;;36.25;19.70;;;;;;;1.95;86.93;102004.78;5058393;28;20766;-74
2022/12/03 07:46:39;;;;;;;40.17;19.63;;;;;;;1.96;87.43;102008.28;5056685;28;20035;-74
2022/12/03 07:49:04;;;;;;;36.42;19.90;;;;;;;1.97;86.99;102007.41;5060862;28;20021;-74
2022/12/03 07:51:29;;;;;;;40.88;21.42;;;;;;;1.96;86.75;102013.59;5057459;28;20041;-73
2022/12/03 07:53:54;;;;;;;39.72;21.00;;;;;;;1.91;86.71;102008.38;5059792;28;20255;-74
2022/12/03 07:56:20;;;;;;;43.08;21.00;;;;;;;1.90;87.55;102003.97;5058255;28;20506;-73
2022/12/03 07:58:45;;;;;;;38.30;20.63;;;;;;;1.88;86.96;102019.03;5057426;28;20028;-74
2022/12/03 08:01:10;;;;;;;38.45;19.67;;;;;;;1.88;87.27;102019.03;5060019;28;20142;-73
2022/12/03 08:03:37;;;;;;;36.63;20.15;;;;;;;1.88;86.89;102011.94;5054374;28;20031;-73
2022/12/03 08:06:02;;;;;;;44.10;22.80;;;;;;;1.88;87.16;102008.44;5054372;28;20017;-73
2022/12/03 08:08:28;;;;;;;45.22;20.88;;;;;;;1.91;87.42;102011.91;5056760;28;20426;-73
2022/12/03 08:10:53;;;;;;;36.40;20.55;;;;;;;1.95;87.32;102010.06;5067978;28;20107;-73
2022/12/03 08:13:18;;;;;;;38.08;18.77;;;;;;;1.98;86.77;102017.97;5067405;28;20017;-73
2022/12/03 08:15:44;;;;;;;37.25;19.27;;;;;;;1.98;86.13;102020.63;5070426;28;20025;-73
2022/12/03 08:18:18;;;;;;;34.83;20.02;;;;;;;1.98;86.45;102017.97;5071508;28;20039;-73
2022/12/03 08:20:47;;;;;;;40.35;21.20;;;;;;;2.00;86.29;102018.81;5068874;28;20024;-73
2022/12/03 08:23:16;;;;;;;37.53;18.60;;;;;;;2.03;86.43;102010.78;5071457;28;20119;-73
2022/12/03 08:25:42;;;;;;;36.22;20.35;;;;;;;2.07;86.08;102023.09;5066616;28;20082;-73
2022/12/03 08:28:22;;;;;;;39.83;19.48;;;;;;;2.09;86.01;102016.00;5065462;28;20028;-73
2022/12/03 08:31:11;;;;;;;35.90;16.90;;;;;;;2.12;86.35;102024.78;5065137;28;20089;-73
2022/12/03 08:33:37;;;;;;;38.55;18.92;;;;;;;2.11;85.95;102023.91;5063390;28;20388;-73
2022/12/03 08:36:12;;;;;;;38.53;17.90;;;;;;;2.07;85.28;102020.44;5055273;28;20055;-73
2022/12/03 08:38:38;;;;;;;37.10;19.40;;;;;;;2.07;85.21;102014.28;5068966;28;20036;-73
2022/12/03 08:41:11;;;;;;;38.13;17.80;;;;;;;2.10;86.12;102016.84;5058484;28;20029;-73
2022/12/03 08:43:41;;;;;;;38.33;19.50;;;;;;;2.14;85.78;102022.97;5062471;28;20021;-73
2022/12/03 08:46:13;;;;;;;37.42;19.05;;;;;;;2.15;84.71;102019.41;5062272;28;20036;-73
2022/12/03 08:48:39;;;;;;;36.70;17.42;;;;;;;2.18;84.89;102012.28;5062398;28;20103;-73
2022/12/03 08:51:16;;;;;;;35.33;18.67;;;;;;;2.21;85.76;102017.53;5059417;28;20124;-73
2022/12/03 08:53:56;;;;;;;34.22;19.40;;;;;;;2.24;85.35;102011.28;5062103;28;20089;-73
2022/12/03 08:56:27;;;;;;;41.63;20.27;;;;;;;2.22;85.21;102015.75;5057954;28;20443;-73
2022/12/03 08:58:57;;;;;;;36.88;19.63;;;;;;;2.22;85.64;102007.78;5064181;28;20025;-73
2022/12/03 09:01:36;;;;;;;39.38;19.48;;;;;;;2.23;85.59;102017.50;5056830;28;20039;-73
2022/12/03 09:04:18;;;;;;;38.75;18.98;;;;;;;2.22;85.40;102021.06;5060435;28;20024;-73
2022/12/03 09:06:43;;;;;;;40.95;20.48;;;;;;;2.18;85.79;102020.25;5066974;28;20418;-73
2022/12/03 09:09:09;;;;;;;42.15;19.95;;;;;;;2.19;85.71;102021.13;5070320;28;20031;-73
2022/12/03 09:11:34;;;;;;;38.05;19.92;;;;;;;2.19;85.89;102015.81;5068890;28;20037;-73
2022/12/03 09:13:59;;;;;;;36.85;19.38;;;;;;;2.19;85.74;102021.97;5064526;28;20490;-73
2022/12/03 09:16:24;;;;;;;42.25;20.25;;;;;;;2.16;85.06;102018.53;5066332;28;20021;-73
2022/12/03 09:18:50;;;;;;;36.55;18.92;;;;;;;2.17;85.75;102017.63;5064956;28;20028;-73
2022/12/03 09:21:15;;;;;;;33.95;18.70;;;;;;;2.17;85.61;102018.50;5062178;28;20021;-73
2022/12/03 09:23:40;;;;;;;39.67;20.75;;;;;;;2.20;85.19;102022.88;5061450;28;20074;-73
2022/12/03 09:26:05;;;;;;;37.63;17.88;;;;;;;2.21;84.22;102019.28;5055232;28;20392;-73
2022/12/03 09:28:31;;;;;;;37.40;19.75;;;;;;;2.20;84.14;102022.88;5060837;28;20056;-73
2022/12/03 09:30:56;;;;;;;36.92;19.83;;;;;;;2.20;84.80;102020.22;5055409;28;20391;-73
2022/12/03 09:33:21;;;;;;;37.67;19.42;;;;;;;2.23;84.92;102018.38;5056853;28;20039;-73
2022/12/03 09:35:47;;;;;;;36.60;19.33;;;;;;;2.25;84.48;102021.84;5059078;28;20032;-73
2022/12/03 09:38:12;;;;;;;39.15;19.27;;;;;;;2.26;82.92;102017.44;5059102;28;20498;-73
2022/12/03 09:40:38;;;;;;;39.30;18.90;;;;;;;2.27;83.97;102019.19;5059145;28;20031;-73
2022/12/03 09:43:03;;;;;;;40.50;18.38;;;;;;;2.23;82.45;102020.16;5059075;28;20028;-73
2022/12/03 09:45:29;;;;;;;41.67;19.45;;;;;;;2.22;82.97;102015.75;5054695;28;20032;-73
2022/12/03 09:47:54;;;;;;;37.00;19.73;;;;;;;2.21;83.11;102016.66;5058866;28;20029;-73
2022/12/03 09:50:23;;;;;;;37.92;19.15;;;;;;;2.19;83.37;102013.16;5058683;28;20040;-73
2022/12/03 09:52:50;;;;;;;36.25;19.33;;;;;;;2.13;82.62;102010.63;5059672;28;20025;-73
2022/12/03 09:55:25;;;;;;;33.65;18.65;;;;;;;2.13;83.16;102011.50;5076321;28;20115;-73
2022/12/03 09:57:52;;;;;;;32.20;18.10;;;;;;;2.10;83.10;102009.78;5072062;28;20054;-73
2022/12/03 10:00:23;;;;;;;36.05;19.67;;;;;;;2.12;82.87;102007.09;5070672;28;20024;-73
2022/12/03 10:02:51;;;;;;;37.22;18.10;;;;;;;2.15;82.84;101999.06;5069169;28;20016;-74
2022/12/03 10:05:21;;;;;;;38.03;20.10;;;;;;;2.15;81.92;101998.19;5073352;28;20051;-73
2022/12/03 10:07:47;;;;;;;38.25;17.85;;;;;;;2.15;82.04;101996.41;5066218;28;20047;-73
2022/12/03 10:10:21;;;;;;;35.63;17.42;;;;;;;2.20;82.57;102004.31;5071239;28;20028;-73
2022/12/03 10:12:47;;;;;;;34.83;16.85;;;;;;;2.20;81.70;101999.00;5064517;28;20035;-73
2022/12/03 10:15:15;;;;;;;38.95;18.15;;;;;;;2.24;81.33;101992.69;5061092;28;20109;-73
2022/12/03 10:17:41;;;;;;;32.60;16.17;;;;;;;2.24;80.61;101992.69;5055860;28;20035;-74
2022/12/03 10:20:11;;;;;;;34.13;16.00;;;;;;;2.25;80.42;101989.16;5062491;28;20472;-74
2022/12/03 10:22:36;;;;;;;38.25;16.83;;;;;;;2.23;79.55;101988.31;5073117;28;20476;-73
2022/12/03 10:25:07;;;;;;;33.35;16.05;;;;;;;2.18;79.92;101979.56;5060558;28;20030;-73
2022/12/03 10:27:33;;;;;;;34.08;16.27;;;;;;;2.10;79.02;101977.94;5059229;28;20107;-73
2022/12/03 10:30:00;;;;;;;32.42;17.88;;;;;;;2.05;79.86;101977.19;5058127;28;20474;-71
2022/12/03 10:32:38;;;;;;;35.90;16.60;;;;;;;1.99;79.71;101982.59;5069076;28;20029;-72
2022/12/03 10:35:09;;;;;;;35.25;16.67;;;;;;;1.96;80.40;101974.69;5071718;28;20032;-73
2022/12/03 10:37:35;;;;;;;28.88;14.60;;;;;;;1.94;79.64;101965.91;5064747;28;20047;-72
2022/12/03 10:40:08;;;;;;;31.70;15.50;;;;;;;1.92;80.81;101971.22;5058857;28;20024;-72
2022/12/03 10:42:36;;;;;;;31.98;15.50;;;;;;;1.95;80.52;101962.34;5055067;28;20788;-72
2022/12/03 10:45:11;;;;;;;35.95;17.90;;;;;;;1.96;80.43;101956.13;5055468;28;20132;-72
2022/12/03 10:47:36;;;;;;;35.90;15.90;;;;;;;1.97;80.80;101952.56;5057048;28;20066;-72
2022/12/03 10:50:05;;;;;;;31.60;14.80;;;;;;;1.94;80.11;101950.00;5073257;28;20048;-72
2022/12/03 10:52:30;;;;;;;33.63;16.15;;;;;;;1.95;81.26;101946.44;5059836;28;20031;-72
2022/12/03 10:54:56;;;;;;;33.83;15.50;;;;;;;1.99;81.16;101945.50;5057168;28;20448;-72
2022/12/03 10:57:22;;;;;;;37.28;15.30;;;;;;;2.01;80.68;101946.31;5059122;28;20500;-72
2022/12/03 10:59:47;;;;;;;34.47;16.30;;;;;;;2.04;81.03;101940.09;5060206;28;20051;-72
2022/12/03 11:02:19;;;;;;;31.45;15.52;;;;;;;2.04;79.84;101933.00;5056088;28;20033;-72
2022/12/03 11:04:45;;;;;;;32.42;15.77;;;;;;;1.99;80.10;101929.56;5057788;28;20025;-72
2022/12/03 11:07:16;;;;;;;31.50;16.75;;;;;;;2.03;80.11;101938.34;5054975;28;20814;-72
2022/12/03 11:09:47;;;;;;;35.28;16.45;;;;;;;2.09;79.83;101933.78;5058044;28;20392;-71
2022/12/03 11:12:21;;;;;;;29.20;15.02;;;;;;;2.17;79.48;101943.38;5059463;28;20032;-72
2022/12/03 11:14:53;;;;;;;34.08;16.08;;;;;;;2.17;79.04;101930.09;5057839;28;20021;-73
2022/12/03 11:17:42;;;;;;;30.65;15.52;;;;;;;2.18;78.34;101923.88;5062687;28;20028;-73
2022/12/03 11:20:31;;;;;;;30.48;15.07;;;;;;;2.21;79.11;101916.75;5060019;28;20031;-73
2022/12/03 11:22:57;;;;;;;30.85;15.07;;;;;;;2.19;78.27;101915.03;4998320;28;20069;-73
2022/12/03 11:25:28;;;;;;;34.72;17.35;;;;;;;2.18;77.81;101919.47;4998912;28;20516;-73
2022/12/03 11:28:11;;;;;;;29.80;15.65;;;;;;;2.20;79.74;101916.78;4999080;28;20436;-73
2022/12/03 11:30:48;;;;;;;31.75;16.08;;;;;;;2.22;79.11;101912.31;5001480;28;20116;-73
2022/12/03 11:33:50;;;;;;;33.60;16.65;;;;;;;2.22;78.43;101910.50;4998186;28;20065;-73